createdAt,value
2018-08-17T15:39:07.068Z,5.30
2018-08-17T15:41:41.741Z,4.47
2018-08-17T15:44:40.483Z,6.22
2018-08-17T15:47:08.940Z,5.53
2018-08-17T15:49:37.307Z,6.22
2018-08-17T15:52:06.680Z,7.35
2018-08-17T15:54:34.970Z,5.92
2018-08-17T15:57:03.308Z,5.03
2018-08-17T15:59:31.580Z,6.65
2018-08-17T16:01:59.974Z,6.17
2018-08-17T16:04:28.522Z,5.37
2018-08-17T16:06:58.134Z,5.22
2018-08-17T16:09:26.382Z,7.65
2018-08-17T16:11:54.654Z,5.25
2018-08-17T16:14:23.113Z,9.40
2018-08-17T16:16:51.456Z,8.60
2018-08-17T16:19:19.688Z,10.23
2018-08-17T16:21:47.993Z,9.88
2018-08-17T16:24:16.249Z,7.65
2018-08-17T16:26:44.501Z,5.92
2018-08-17T16:29:14.003Z,6.97
2018-08-17T16:31:43.033Z,6.17
2018-08-17T16:34:11.354Z,6.83
2018-08-17T16:36:41.605Z,4.73
2018-08-17T16:39:12.984Z,10.55
2018-08-17T16:41:41.345Z,7.03
2018-08-17T16:44:09.710Z,10.50
2018-08-17T16:46:39.089Z,7.80
2018-08-17T16:49:07.647Z,6.30
2018-08-17T16:51:43.852Z,7.40
2018-08-17T16:54:12.239Z,7.80
2018-08-17T16:56:41.989Z,7.10
2018-08-17T16:59:10.280Z,6.35
2018-08-17T17:01:38.620Z,7.80
2018-08-17T17:04:06.914Z,7.60
2018-08-17T17:06:35.720Z,8.05
2018-08-17T17:09:07.163Z,7.73
2018-08-17T17:11:35.824Z,5.03
2018-08-17T17:14:04.132Z,7.33
2018-08-17T17:16:44.972Z,7.37
2018-08-17T17:19:17.684Z,5.73
2018-08-17T17:21:46.983Z,6.72
2018-08-17T17:24:15.958Z,5.67
2018-08-17T17:26:44.461Z,4.85
2018-08-17T17:29:13.346Z,5.33
2018-08-17T17:31:42.342Z,6.40
2018-08-17T17:34:12.439Z,5.28
2018-08-17T17:36:40.739Z,8.50
2018-08-17T17:39:11.366Z,6.97
2018-08-17T17:41:39.672Z,7.63
2018-08-17T17:44:07.921Z,7.05
2018-08-17T17:46:36.569Z,5.95
2018-08-17T17:49:04.827Z,7.00
2018-08-17T17:51:33.482Z,7.40
2018-08-17T17:54:02.022Z,6.85
2018-08-17T17:56:30.356Z,4.92
2018-08-17T17:59:02.777Z,5.15
2018-08-17T18:01:31.050Z,5.42
2018-08-17T18:03:59.316Z,6.85
2018-08-17T18:06:27.573Z,4.75
2018-08-17T18:08:58.634Z,6.20
2018-08-17T18:11:26.942Z,7.17
2018-08-17T18:13:55.210Z,6.70
2018-08-17T18:16:23.504Z,5.73
2018-08-17T18:18:53.960Z,7.85
2018-08-17T18:21:23.924Z,5.80
2018-08-17T18:23:56.602Z,6.83
2018-08-17T18:26:27.039Z,10.10
2018-08-17T18:28:56.434Z,6.80
2018-08-17T18:31:25.518Z,11.40
2018-08-17T18:33:53.780Z,8.10
2018-08-17T18:36:22.087Z,7.95
2018-08-17T18:38:50.323Z,6.13
2018-08-17T18:41:18.584Z,9.80
2018-08-17T18:43:46.838Z,7.67
2018-08-17T18:46:15.980Z,9.90
2018-08-17T18:48:44.928Z,7.87
2018-08-17T18:51:13.178Z,7.33
2018-08-17T18:53:42.791Z,8.03
2018-08-17T18:56:11.065Z,11.95
2018-08-17T18:58:39.335Z,9.10
2018-08-17T19:01:07.643Z,28.50
2018-08-17T19:03:36.680Z,33.18
2018-08-17T19:06:05.240Z,15.80
2018-08-17T19:08:34.626Z,10.53
2018-08-17T19:11:02.904Z,9.97
2018-08-17T19:13:31.191Z,18.70
2018-08-17T19:15:59.607Z,28.32
2018-08-17T19:18:32.411Z,28.80
2018-08-17T19:21:04.066Z,15.03
2018-08-17T19:23:32.411Z,17.90
2018-08-17T19:26:00.700Z,8.33
2018-08-17T19:28:28.999Z,9.97
2018-08-17T19:30:57.920Z,7.37
2018-08-17T19:33:26.910Z,6.63
2018-08-17T19:35:55.176Z,7.83
2018-08-17T19:38:23.516Z,7.20
2018-08-17T19:40:52.089Z,6.50
2018-08-17T19:43:20.475Z,6.63
2018-08-17T19:45:49.504Z,5.83
2018-08-17T19:48:19.089Z,8.23
2018-08-17T19:50:47.447Z,9.20
2018-08-17T19:53:17.301Z,7.85
2018-08-17T19:55:45.661Z,7.10
2018-08-17T19:58:14.036Z,9.43
2018-08-17T20:00:42.527Z,7.27
2018-08-17T20:03:10.774Z,9.10
2018-08-17T20:05:39.010Z,6.97
2018-08-17T20:08:07.382Z,9.00
2018-08-17T20:10:36.606Z,7.03
2018-08-17T20:13:06.404Z,9.70
2018-08-17T20:15:35.308Z,8.27
2018-08-17T20:18:04.727Z,6.30
2018-08-17T20:20:33.011Z,6.97
2018-08-17T20:23:03.339Z,7.03
2018-08-17T20:25:31.632Z,8.43
2018-08-17T20:27:59.858Z,11.40
2018-08-17T20:30:28.133Z,13.77
2018-08-17T20:32:56.590Z,8.58
2018-08-17T20:35:24.926Z,10.17
2018-08-17T20:37:54.609Z,9.13
2018-08-17T20:40:24.355Z,9.67
2018-08-17T20:42:52.883Z,8.40
2018-08-17T20:45:26.036Z,10.73
2018-08-17T20:47:54.418Z,7.30
2018-08-17T20:50:22.773Z,11.03
2018-08-17T20:52:56.461Z,9.70
2018-08-17T20:55:24.801Z,7.70
2018-08-17T20:57:54.252Z,8.60
2018-08-17T21:00:24.364Z,8.37
2018-08-17T21:02:52.677Z,6.90
2018-08-17T21:05:21.130Z,7.95
2018-08-17T21:07:51.317Z,6.33
2018-08-17T21:10:20.732Z,8.20
2018-08-17T21:12:49.479Z,10.50
2018-08-17T21:15:19.660Z,8.63
2018-08-17T21:17:48.385Z,6.60
2018-08-17T21:20:16.653Z,10.20
2018-08-17T21:22:45.173Z,6.53
2018-08-17T21:25:13.551Z,8.97
2018-08-17T21:27:41.851Z,7.70
2018-08-17T21:30:10.582Z,12.43
2018-08-17T21:32:40.266Z,7.80
2018-08-17T21:35:12.160Z,8.53
2018-08-17T21:40:14.245Z,9.33
2018-08-17T21:42:42.821Z,7.33
2018-08-17T21:45:12.052Z,6.27
2018-08-17T21:47:40.353Z,6.63
2018-08-17T21:50:14.633Z,9.30
2018-08-17T21:52:43.736Z,8.67
2018-08-17T21:55:12.145Z,8.80
2018-08-17T21:57:40.394Z,10.47
2018-08-17T22:00:12.089Z,6.83
2018-08-17T22:02:40.337Z,8.23
2018-08-17T22:05:09.695Z,9.63
2018-08-17T22:07:38.023Z,7.83
2018-08-17T22:10:07.780Z,5.93
2018-08-17T22:12:36.663Z,6.80
2018-08-17T22:15:06.125Z,4.67
2018-08-17T22:17:36.830Z,6.57
2018-08-17T22:20:07.526Z,4.90
2018-08-17T22:22:36.171Z,8.23
2018-08-17T22:25:12.363Z,7.10
2018-08-17T22:27:41.316Z,6.45
2018-08-17T22:30:16.587Z,6.17
2018-08-17T22:32:44.818Z,7.62
2018-08-17T22:35:13.212Z,5.90
2018-08-17T22:37:41.719Z,6.67
2018-08-17T22:40:09.995Z,5.87
2018-08-17T22:50:44.026Z,6.60
2018-08-17T22:53:12.618Z,7.50
2018-08-17T22:55:40.907Z,5.90
2018-08-17T22:58:09.199Z,6.87
2018-08-17T23:03:20.218Z,5.50
2018-08-17T23:05:48.485Z,5.67
2018-08-17T23:08:17.808Z,7.73
2018-08-17T23:10:46.121Z,7.23
2018-08-17T23:13:14.838Z,8.47
2018-08-17T23:15:43.151Z,5.13
2018-08-17T23:18:11.694Z,7.20
2018-08-17T23:20:51.570Z,6.60
2018-08-17T23:23:26.315Z,7.24
2018-08-17T23:25:57.646Z,7.93
2018-08-17T23:28:32.983Z,7.65
2018-08-17T23:31:05.217Z,7.00
2018-08-17T23:33:37.506Z,5.55
2018-08-17T23:36:15.623Z,5.33
2018-08-17T23:38:48.225Z,9.43
2018-08-17T23:41:18.732Z,6.97
2018-08-17T23:43:47.012Z,5.90
2018-08-17T23:46:15.342Z,12.23
2018-08-17T23:48:43.892Z,9.13
2018-08-17T23:51:12.324Z,9.53
2018-08-17T23:53:40.586Z,8.60
2018-08-17T23:56:08.955Z,7.40
2018-08-17T23:58:37.242Z,6.20
